sensor_id;sensor_type;location;lat;lon;timestamp;pressure;altitude;pressure_sealevel;temperature;humidity
47710;BME280;33473;51.640;5.892;2022-12-15T00:06:13;100500;;;-1.4;49.0
47710;BME280;33473;51.640;5.892;2022-12-15T00:18:35;100500;;;-1.2;49.0
47710;BME280;33473;51.640;5.892;2022-12-15T00:30:57;100500;;;-1.0;50.0
47710;BME280;33473;51.640;5.892;2022-12-15T00:43:20;100500;;;-0.9;49.0
47710;BME280;33473;51.640;5.892;2022-12-15T00:55:42;100500;;;-0.9;49.0
47710;BME280;33473;51.640;5.892;2022-12-15T01:08:04;100500;;;-0.7;49.0
47710;BME280;33473;51.640;5.892;2022-12-15T01:20:26;100500;;;-0.8;49.0
47710;BME280;33473;51.640;5.892;2022-12-15T01:32:49;100600;;;-0.9;49.0
47710;BME280;33473;51.640;5.892;2022-12-15T01:45:11;100600;;;-0.9;49.0
47710;BME280;33473;51.640;5.892;2022-12-15T01:57:33;100600;;;-0.9;49.0
47710;BME280;33473;51.640;5.892;2022-12-15T02:09:55;100600;;;-0.8;50.0
47710;BME280;33473;51.640;5.892;2022-12-15T02:22:18;100600;;;-1.0;49.0
47710;BME280;33473;51.640;5.892;2022-12-15T02:34:40;100600;;;-1.1;49.0
47710;BME280;33473;51.640;5.892;2022-12-15T02:47:02;100600;;;-1.2;49.0
47710;BME280;33473;51.640;5.892;2022-12-15T02:59:24;100600;;;-1.1;49.0
47710;BME280;33473;51.640;5.892;2022-12-15T03:11:47;100600;;;-1.1;49.0
47710;BME280;33473;51.640;5.892;2022-12-15T03:24:09;100600;;;-1.1;49.0
47710;BME280;33473;51.640;5.892;2022-12-15T03:36:31;100600;;;-1.1;49.0
47710;BME280;33473;51.640;5.892;2022-12-15T03:48:53;100600;;;-1.1;49.0
47710;BME280;33473;51.640;5.892;2022-12-15T04:01:16;100700;;;-1.0;48.0
47710;BME280;33473;51.640;5.892;2022-12-15T04:13:38;100700;;;-1.1;49.0
47710;BME280;33473;51.640;5.892;2022-12-15T04:26:00;100600;;;-1.1;49.0
47710;BME280;33473;51.640;5.892;2022-12-15T04:38:22;100600;;;-1.1;49.0
47710;BME280;33473;51.640;5.892;2022-12-15T04:50:44;100700;;;-1.2;49.0
47710;BME280;33473;51.640;5.892;2022-12-15T05:03:07;100700;;;-1.1;49.0
47710;BME280;33473;51.640;5.892;2022-12-15T05:15:29;100700;;;-1.1;49.0
47710;BME280;33473;51.640;5.892;2022-12-15T05:27:51;100700;;;-1.1;49.0
47710;BME280;33473;51.640;5.892;2022-12-15T05:40:14;100700;;;-1.1;49.0
47710;BME280;33473;51.640;5.892;2022-12-15T05:52:36;100700;;;-1.2;49.0
47710;BME280;33473;51.640;5.892;2022-12-15T06:04:58;100700;;;-1.1;49.0
47710;BME280;33473;51.640;5.892;2022-12-15T06:17:20;100700;;;-1.2;49.0
47710;BME280;33473;51.640;5.892;2022-12-15T06:29:42;100700;;;-1.2;49.0
47710;BME280;33473;51.640;5.892;2022-12-15T06:42:05;100700;;;-1.2;48.0
47710;BME280;33473;51.640;5.892;2022-12-15T06:54:27;100700;;;-1.2;49.0
47710;BME280;33473;51.640;5.892;2022-12-15T07:06:49;100700;;;-1.2;49.0
47710;BME280;33473;51.640;5.892;2022-12-15T07:19:12;100700;;;-1.2;49.0
47710;BME280;33473;51.640;5.892;2022-12-15T07:31:34;100800;;;-1.1;49.0
47710;BME280;33473;51.640;5.892;2022-12-15T07:43:56;100800;;;-1.1;49.0
47710;BME280;33473;51.640;5.892;2022-12-15T07:56:18;100800;;;-1.0;49.0
47710;BME280;33473;51.640;5.892;2022-12-15T08:08:41;100800;;;-0.9;49.0
47710;BME280;33473;51.640;5.892;2022-12-15T08:21:03;100800;;;-0.9;49.0
47710;BME280;33473;51.640;5.892;2022-12-15T08:33:25;100800;;;-0.6;50.0
47710;BME280;33473;51.640;5.892;2022-12-15T08:45:47;100800;;;-0.3;50.0
47710;BME280;33473;51.640;5.892;2022-12-15T08:58:10;100800;;;0.1;51.0
47710;BME280;33473;51.640;5.892;2022-12-15T09:10:32;100800;;;0.7;50.0
47710;BME280;33473;51.640;5.892;2022-12-15T09:22:54;100800;;;1.0;50.0
47710;BME280;33473;51.640;5.892;2022-12-15T09:35:16;100800;;;1.4;50.0
47710;BME280;33473;51.640;5.892;2022-12-15T09:47:39;100900;;;2.0;50.0
47710;BME280;33473;51.640;5.892;2022-12-15T10:00:28;100900;;;2.4;51.0
47710;BME280;33473;51.640;5.892;2022-12-15T10:13:48;100900;;;3.7;50.0
47710;BME280;33473;51.640;5.892;2022-12-15T10:27:07;100900;;;3.9;49.0
47710;BME280;33473;51.640;5.892;2022-12-15T10:40:27;100900;;;4.7;47.0
47710;BME280;33473;51.640;5.892;2022-12-15T10:53:47;100900;;;4.3;47.0
47710;BME280;33473;51.640;5.892;2022-12-15T11:07:06;100900;;;4.3;48.0
47710;BME280;33473;51.640;5.892;2022-12-15T11:20:26;100900;;;4.5;48.0
47710;BME280;33473;51.640;5.892;2022-12-15T11:33:46;100800;;;4.7;48.0
47710;BME280;33473;51.640;5.892;2022-12-15T11:47:05;100800;;;5.0;48.0
47710;BME280;33473;51.640;5.892;2022-12-15T12:00:25;100800;;;5.2;47.0
47710;BME280;33473;51.640;5.892;2022-12-15T12:13:45;100800;;;5.2;46.0
47710;BME280;33473;51.640;5.892;2022-12-15T12:27:04;100800;;;5.6;46.0
47710;BME280;33473;51.640;5.892;2022-12-15T12:40:24;100800;;;5.6;46.0
47710;BME280;33473;51.640;5.892;2022-12-15T12:53:44;100800;;;5.7;47.0
47710;BME280;33473;51.640;5.892;2022-12-15T13:07:04;100800;;;5.9;45.0
47710;BME280;33473;51.640;5.892;2022-12-15T13:20:23;100800;;;5.9;45.0
47710;BME280;33473;51.640;5.892;2022-12-15T13:33:43;100800;;;5.9;45.0
47710;BME280;33473;51.640;5.892;2022-12-15T13:47:03;100800;;;6.0;45.0
47710;BME280;33473;51.640;5.892;2022-12-15T14:00:22;100800;;;6.5;45.0
47710;BME280;33473;51.640;5.892;2022-12-15T14:13:42;100800;;;6.5;45.0
47710;BME280;33473;51.640;5.892;2022-12-15T14:27:02;100800;;;6.4;45.0
47710;BME280;33473;51.640;5.892;2022-12-15T14:40:21;100700;;;6.0;45.0
47710;BME280;33473;51.640;5.892;2022-12-15T14:53:41;100700;;;5.6;45.0
47710;BME280;33473;51.640;5.892;2022-12-15T15:07:01;100700;;;5.2;46.0
47710;BME280;33473;51.640;5.892;2022-12-15T15:20:20;100700;;;4.8;46.0
47710;BME280;33473;51.640;5.892;2022-12-15T15:33:40;100700;;;4.5;47.0
47710;BME280;33473;51.640;5.892;2022-12-15T15:47:00;100700;;;4.1;47.0
47710;BME280;33473;51.640;5.892;2022-12-15T16:00:19;100700;;;3.9;48.0
47710;BME280;33473;51.640;5.892;2022-12-15T16:13:39;100700;;;3.7;48.0
47710;BME280;33473;51.640;5.892;2022-12-15T16:26:59;100700;;;3.4;48.0
47710;BME280;33473;51.640;5.892;2022-12-15T16:40:18;100700;;;3.3;48.0
47710;BME280;33473;51.640;5.892;2022-12-15T16:53:38;100700;;;3.1;48.0
47710;BME280;33473;51.640;5.892;2022-12-15T17:06:58;100800;;;2.8;48.0
47710;BME280;33473;51.640;5.892;2022-12-15T17:20:17;100800;;;2.6;48.0
47710;BME280;33473;51.640;5.892;2022-12-15T17:33:37;100800;;;2.4;49.0
47710;BME280;33473;51.640;5.892;2022-12-15T17:46:57;100800;;;2.3;49.0
47710;BME280;33473;51.640;5.892;2022-12-15T18:00:16;100800;;;2.4;49.0
47710;BME280;33473;51.640;5.892;2022-12-15T18:13:36;100800;;;2.3;49.0
47710;BME280;33473;51.640;5.892;2022-12-15T18:26:56;100800;;;2.4;49.0
47710;BME280;33473;51.640;5.892;2022-12-15T18:40:15;100800;;;2.4;49.0
47710;BME280;33473;51.640;5.892;2022-12-15T18:53:35;100800;;;2.4;49.0
47710;BME280;33473;51.640;5.892;2022-12-15T19:06:55;100800;;;2.3;49.0
47710;BME280;33473;51.640;5.892;2022-12-15T19:20:14;100800;;;2.1;49.0
47710;BME280;33473;51.640;5.892;2022-12-15T19:33:34;100800;;;2.1;49.0
47710;BME280;33473;51.640;5.892;2022-12-15T19:46:54;100800;;;1.9;49.0
47710;BME280;33473;51.640;5.892;2022-12-15T20:00:14;100800;;;1.7;49.0
47710;BME280;33473;51.640;5.892;2022-12-15T20:13:33;100800;;;1.5;49.0
47710;BME280;33473;51.640;5.892;2022-12-15T20:26:53;100800;;;1.4;49.0
47710;BME280;33473;51.640;5.892;2022-12-15T20:39:46;100800;;;1.3;48.0
47710;BME280;33473;51.640;5.892;2022-12-15T20:52:08;100800;;;1.1;49.0
47710;BME280;33473;51.640;5.892;2022-12-15T21:04:30;100800;;;1.0;49.0
47710;BME280;33473;51.640;5.892;2022-12-15T21:16:52;100800;;;0.7;49.0
47710;BME280;33473;51.640;5.892;2022-12-15T21:29:15;100800;;;0.5;49.0
47710;BME280;33473;51.640;5.892;2022-12-15T21:41:37;100800;;;0.5;49.0
47710;BME280;33473;51.640;5.892;2022-12-15T21:53:59;100800;;;0.3;49.0
47710;BME280;33473;51.640;5.892;2022-12-15T22:31:06;100800;;;0.1;49.0
47710;BME280;33473;51.640;5.892;2022-12-15T22:43:28;100800;;;-0.2;49.0
47710;BME280;33473;51.640;5.892;2022-12-15T22:55:50;100800;;;-0.1;49.0
47710;BME280;33473;51.640;5.892;2022-12-15T23:08:12;100900;;;0.4;50.0
47710;BME280;33473;51.640;5.892;2022-12-15T23:20:35;100900;;;1.1;51.0
47710;BME280;33473;51.640;5.892;2022-12-15T23:32:57;100900;;;1.7;52.0
47710;BME280;33473;51.640;5.892;2022-12-15T23:45:19;100900;;;2.1;51.0
47710;BME280;33473;51.640;5.892;2022-12-15T23:58:08;100900;;;2.4;52.0
